Time;durP1;ratioP1;P1;durP2;ratioP2;P2;SDS_P1;SDS_P2;PMS_P1;PMS_P2;Temp;Humidity;BMP_temperature;BMP_pressure;BME280_temperature;BME280_humidity;BME280_pressure;Samples;Min_cycle;Max_cycle;Signal;HPM_P1;HPM_P2
2022/10/02 00:02:34;;;;;;;25.48;5.15;;;11.10;99.90;;;;;;5052747;28;20048;-60
2022/10/02 00:05:18;;;;;;;20.50;5.10;;;11.10;99.90;;;;;;5052569;28;20041;-60
2022/10/02 00:08:06;;;;;;;19.38;5.00;;;11.10;99.90;;;;;;5053799;28;20052;-59
2022/10/02 00:10:53;;;;;;;21.77;4.90;;;11.20;99.90;;;;;;5053866;28;20124;-59
2022/10/02 00:13:27;;;;;;;22.00;5.40;;;11.20;99.90;;;;;;5052818;28;20040;-59
2022/10/02 00:15:53;;;;;;;21.33;4.72;;;11.00;99.90;;;;;;5054181;28;20427;-60
2022/10/02 00:18:28;;;;;;;22.80;5.50;;;11.80;99.90;;;;;;5053800;28;20041;-60
2022/10/02 00:21:04;;;;;;;19.92;5.25;;;11.30;99.90;;;;;;5053760;28;20068;-60
2022/10/02 00:23:42;;;;;;;25.75;5.40;;;11.30;99.90;;;;;;5053612;28;20556;-60
2022/10/02 00:26:14;;;;;;;21.27;5.10;;;11.20;99.90;;;;;;5053780;28;20076;-60
2022/10/02 00:29:04;;;;;;;29.17;5.55;;;11.20;99.90;;;;;;5053691;28;20455;-59
2022/10/02 00:31:37;;;;;;;23.33;5.72;;;11.10;99.90;;;;;;5053874;28;20405;-59
2022/10/02 00:34:38;;;;;;;25.35;5.20;;;12.00;99.90;;;;;;5053419;28;20519;-59
2022/10/02 00:37:34;;;;;;;30.50;5.25;;;11.20;99.90;;;;;;5053532;28;20053;-60
2022/10/02 00:40:12;;;;;;;23.70;5.35;;;10.00;99.90;;;;;;5053248;28;20037;-60
2022/10/02 00:42:46;;;;;;;25.17;5.35;;;11.00;99.90;;;;;;5053108;28;20041;-60
2022/10/02 00:45:27;;;;;;;23.60;5.45;;;11.20;99.90;;;;;;5053431;28;20044;-59
2022/10/02 00:47:52;;;;;;;26.13;5.22;;;11.10;99.90;;;;;;5053239;28;20048;-60
2022/10/02 00:50:39;;;;;;;18.30;4.82;;;11.10;99.90;;;;;;5053285;28;20465;-60
2022/10/02 00:53:30;;;;;;;20.30;5.50;;;10.90;99.90;;;;;;5053176;28;20508;-60
2022/10/02 00:56:07;;;;;;;29.35;5.32;;;11.40;99.90;;;;;;5053279;28;20069;-60
2022/10/02 00:58:54;;;;;;;22.17;4.85;;;11.10;99.90;;;;;;5052268;28;20049;-60
2022/10/02 01:01:48;;;;;;;26.67;5.28;;;11.00;99.90;;;;;;5053135;28;20044;-59
2022/10/02 01:04:22;;;;;;;22.23;4.90;;;11.00;99.90;;;;;;5045562;28;20107;-60
2022/10/02 01:06:48;;;;;;;26.08;5.43;;;11.10;99.90;;;;;;5052851;28;20055;-60
2022/10/02 01:09:14;;;;;;;23.88;5.22;;;11.10;99.90;;;;;;5052961;28;20041;-60
2022/10/02 01:11:43;;;;;;;23.77;5.18;;;11.00;99.90;;;;;;5052969;28;20052;-60
2022/10/02 01:14:12;;;;;;;21.00;5.32;;;11.10;99.90;;;;;;5053131;28;20048;-60
2022/10/02 01:16:40;;;;;;;27.40;5.47;;;11.20;99.90;;;;;;5052440;28;20492;-60
2022/10/02 01:19:29;;;;;;;23.85;4.70;;;11.10;99.90;;;;;;5053116;28;20045;-60
2022/10/02 01:22:31;;;;;;;26.33;5.82;;;11.20;99.90;;;;;;5052881;28;20048;-60
2022/10/02 01:25:00;;;;;;;23.20;5.28;;;11.10;99.90;;;;;;5042895;28;20497;-60
2022/10/02 01:27:26;;;;;;;31.05;5.60;;;10.90;99.90;;;;;;5052798;28;20049;-60
2022/10/02 01:30:00;;;;;;;25.13;5.35;;;10.70;99.90;;;;;;5052852;28;20511;-60
2022/10/02 01:32:28;;;;;;;23.63;5.60;;;11.20;99.90;;;;;;5053118;28;20481;-60
2022/10/02 01:34:56;;;;;;;22.88;5.15;;;11.10;99.90;;;;;;5052969;28;20133;-60
2022/10/02 01:37:27;;;;;;;27.85;5.97;;;11.20;99.90;;;;;;5052973;28;20044;-60
2022/10/02 01:39:55;;;;;;;29.38;5.55;;;11.00;99.90;;;;;;5052822;28;20183;-60
2022/10/02 01:42:20;;;;;;;21.33;5.68;;;11.10;99.90;;;;;;5052723;28;20045;-59
2022/10/02 01:44:49;;;;;;;24.67;5.38;;;10.50;99.90;;;;;;5052565;28;20044;-59
2022/10/02 01:47:46;;;;;;;19.17;5.00;;;11.10;99.90;;;;;;5052895;28;20421;-60
2022/10/02 01:50:28;;;;;;;31.77;5.68;;;11.20;99.90;;;;;;5052231;28;20076;-59
2022/10/02 01:53:20;;;;;;;27.45;5.72;;;11.20;99.90;;;;;;5052545;28;20098;-59
2022/10/02 01:56:00;;;;;;;34.45;6.47;;;11.10;99.90;;;;;;5053986;28;20041;-59
2022/10/02 01:58:43;;;;;;;28.38;5.95;;;10.90;99.90;;;;;;5056694;28;20477;-60
2022/10/02 02:01:18;;;;;;;26.90;5.85;;;11.80;99.90;;;;;;5056395;28;20092;-59
2022/10/02 02:04:04;;;;;;;26.08;5.70;;;11.30;99.90;;;;;;5056373;28;20090;-59
2022/10/02 02:06:37;;;;;;;26.50;5.82;;;11.20;99.90;;;;;;5056063;28;20124;-59
2022/10/02 02:09:24;;;;;;;20.15;5.35;;;11.40;99.90;;;;;;5055000;28;20501;-59
2022/10/02 02:12:07;;;;;;;27.40;5.38;;;11.50;99.90;;;;;;5056077;28;20121;-59
2022/10/02 02:14:38;;;;;;;26.30;5.55;;;11.40;99.90;;;;;;5056322;28;20044;-60
2022/10/02 02:17:27;;;;;;;28.42;5.95;;;11.30;99.90;;;;;;5056151;28;20043;-61
2022/10/02 02:20:04;;;;;;;25.15;5.43;;;11.60;99.90;;;;;;5054905;28;20049;-61
2022/10/02 02:22:34;;;;;;;27.85;5.18;;;12.30;99.90;;;;;;5055969;28;20477;-61
2022/10/02 02:25:12;;;;;;;24.45;5.55;;;11.10;99.90;;;;;;5056196;28;20037;-61
2022/10/02 02:27:46;;;;;;;28.13;5.80;;;11.30;99.90;;;;;;5056019;28;20119;-61
2022/10/02 02:30:14;;;;;;;27.50;5.82;;;11.30;99.90;;;;;;5055801;28;20045;-61
2022/10/02 02:32:46;;;;;;;25.40;5.70;;;11.30;99.90;;;;;;5055700;28;20052;-61
2022/10/02 02:35:28;;;;;;;29.48;6.07;;;11.20;99.90;;;;;;5055682;28;20044;-61
2022/10/02 02:37:57;;;;;;;32.92;5.25;;;11.50;99.90;;;;;;5055775;28;20041;-61
2022/10/02 02:40:28;;;;;;;26.75;5.38;;;11.30;99.90;;;;;;5055473;28;20549;-61
2022/10/02 02:43:27;;;;;;;26.67;5.72;;;11.20;99.90;;;;;;5055575;28;20048;-61
2022/10/02 02:46:00;;;;;;;25.75;5.38;;;12.20;99.90;;;;;;5055539;28;20563;-61
2022/10/02 02:48:35;;;;;;;24.65;5.32;;;12.40;99.90;;;;;;5055533;28;20480;-62
2022/10/02 02:51:10;;;;;;;22.75;4.65;;;10.10;99.90;;;;;;5055507;28;20045;-61
2022/10/02 02:53:50;;;;;;;21.63;4.60;;;11.20;99.90;;;;;;5055285;28;20040;-62
2022/10/02 02:56:19;;;;;;;25.33;5.70;;;11.20;99.90;;;;;;5055527;28;20056;-61
2022/10/02 02:58:57;;;;;;;23.13;5.07;;;10.00;99.90;;;;;;5055301;28;20106;-61
2022/10/02 03:01:22;;;;;;;31.15;5.78;;;11.50;99.90;;;;;;5055754;28;20041;-59
2022/10/02 03:03:48;;;;;;;24.02;4.90;;;11.00;99.90;;;;;;5055195;28;20067;-59
2022/10/02 03:06:20;;;;;;;21.30;4.45;;;11.10;99.90;;;;;;5054967;28;20465;-59
2022/10/02 03:08:51;;;;;;;19.50;4.75;;;10.90;99.90;;;;;;5055366;28;20159;-59
2022/10/02 03:11:28;;;;;;;25.05;4.57;;;11.60;99.90;;;;;;5054893;28;20459;-59
2022/10/02 03:14:26;;;;;;;23.98;4.85;;;12.30;99.90;;;;;;5055017;28;20374;-59
2022/10/02 03:17:19;;;;;;;24.35;4.88;;;11.00;99.90;;;;;;5037206;28;20080;-59
2022/10/02 03:20:01;;;;;;;22.83;4.20;;;12.00;99.90;;;;;;5054955;28;20037;-60
2022/10/02 03:22:56;;;;;;;20.98;4.60;;;10.90;99.90;;;;;;5054807;28;20136;-59
2022/10/02 03:25:35;;;;;;;19.88;4.85;;;11.60;99.90;;;;;;5053488;28;20120;-59
2022/10/02 03:28:16;;;;;;;17.75;4.40;;;11.00;99.90;;;;;;5054939;28;20048;-59
2022/10/02 03:30:43;;;;;;;16.83;4.20;;;11.70;99.90;;;;;;5054770;28;20116;-59
2022/10/02 03:33:13;;;;;;;24.77;4.70;;;11.00;99.90;;;;;;5054492;28;20107;-59
2022/10/02 03:35:42;;;;;;;24.05;4.53;;;11.00;99.90;;;;;;5054787;28;20040;-59
2022/10/02 03:38:13;;;;;;;18.77;4.35;;;10.90;99.90;;;;;;5054599;28;20041;-59
2022/10/02 03:40:39;;;;;;;19.52;4.22;;;11.20;99.90;;;;;;5054381;28;20481;-59
2022/10/02 03:43:06;;;;;;;19.20;3.75;;;11.40;99.90;;;;;;5054426;28;20116;-60
2022/10/02 03:45:33;;;;;;;18.85;3.83;;;11.00;99.90;;;;;;5054037;28;20051;-61
2022/10/02 03:47:59;;;;;;;17.08;4.20;;;;;;;;;;5054534;28;20071;-62
2022/10/02 03:50:29;;;;;;;19.20;3.75;;;;;;;;;;5054345;28;20043;-62
2022/10/02 03:52:55;;;;;;;16.75;4.15;;;11.20;99.90;;;;;;5054172;28;20507;-59
2022/10/02 03:55:36;;;;;;;15.85;3.88;;;10.50;99.90;;;;;;5053645;28;20052;-59
2022/10/02 03:58:15;;;;;;;19.67;3.90;;;11.00;99.90;;;;;;5053951;28;20053;-59
2022/10/02 04:01:11;;;;;;;12.23;3.20;;;10.90;99.90;;;;;;5054292;28;20037;-59
2022/10/02 04:03:48;;;;;;;17.27;3.78;;;10.90;99.90;;;;;;5054056;28;20044;-60
2022/10/02 04:06:19;;;;;;;16.63;3.40;;;10.80;99.90;;;;;;5053819;28;20071;-59
2022/10/02 04:08:52;;;;;;;17.17;3.55;;;10.80;99.90;;;;;;5053867;28;20053;-59
2022/10/02 04:11:30;;;;;;;18.55;3.78;;;10.70;99.90;;;;;;5054048;28;20091;-59
2022/10/02 04:14:05;;;;;;;17.23;3.25;;;10.20;99.90;;;;;;5053862;28;20500;-60
2022/10/02 04:16:34;;;;;;;19.27;3.55;;;10.90;99.90;;;;;;5054071;28;20057;-60
2022/10/02 04:19:21;;;;;;;13.38;3.03;;;10.90;99.90;;;;;;5053035;28;20045;-60
2022/10/02 04:22:05;;;;;;;16.20;3.50;;;10.80;99.90;;;;;;5045426;28;20055;-60
2022/10/02 04:24:37;;;;;;;14.43;3.85;;;11.80;99.90;;;;;;5053714;28;20049;-61
2022/10/02 04:27:28;;;;;;;14.98;3.67;;;10.70;99.90;;;;;;5053523;28;20047;-61
2022/10/02 04:30:15;;;;;;;19.42;4.65;;;10.60;99.90;;;;;;5053575;28;20476;-61
2022/10/02 04:32:44;;;;;;;25.38;4.45;;;10.70;99.90;;;;;;5053571;28;20503;-62
2022/10/02 04:35:27;;;;;;;16.77;3.83;;;10.70;99.90;;;;;;5053520;28;20063;-62
2022/10/02 04:38:14;;;;;;;14.13;4.10;;;10.60;99.90;;;;;;5053052;28;20040;-62
2022/10/02 04:40:49;;;;;;;20.30;4.10;;;11.30;99.90;;;;;;5053497;28;20060;-61
2022/10/02 04:43:36;;;;;;;27.20;4.22;;;9.70;99.90;;;;;;5053484;28;20095;-61
2022/10/02 04:47:03;;;;;;;17.20;4.13;;;10.70;99.90;;;;;;5053014;28;20404;-61
2022/10/02 04:50:17;;;;;;;21.95;4.78;;;10.60;99.90;;;;;;4972619;28;20051;-61
2022/10/02 04:53:28;;;;;;;24.33;4.40;;;10.50;99.90;;;;;;4938842;28;20483;-61
2022/10/02 04:56:20;;;;;;;19.80;4.65;;;11.30;99.90;;;;;;4972392;28;20078;-61
2022/10/02 04:58:47;;;;;;;19.60;4.70;;;;;;;;;;4971526;28;20384;-61
2022/10/02 05:01:46;;;;;;;27.33;5.50;;;9.40;99.90;;;;;;4972405;28;20175;-61
2022/10/02 05:04:47;;;;;;;19.52;4.95;;;10.60;99.90;;;;;;4972303;28;20182;-61
2022/10/02 05:07:40;;;;;;;27.73;5.45;;;11.30;99.90;;;;;;4965256;28;20061;-61
2022/10/02 05:10:35;;;;;;;30.00;5.47;;;10.50;99.90;;;;;;4972360;28;20138;-62
2022/10/02 05:13:22;;;;;;;29.60;5.15;;;10.60;99.90;;;;;;4972082;28;20050;-62
2022/10/02 05:16:15;;;;;;;33.08;6.13;;;10.70;99.90;;;;;;4968337;28;20086;-60
2022/10/02 05:18:56;;;;;;;24.85;5.32;;;10.60;99.90;;;;;;4972213;28;20086;-60
2022/10/02 05:21:43;;;;;;;20.88;5.53;;;10.90;99.90;;;;;;4972013;28;20191;-61
2022/10/02 05:24:09;;;;;;;25.10;5.18;;;;;;;;;;5001344;28;20062;-59
2022/10/02 05:27:02;;;;;;;29.73;6.30;;;10.70;99.90;;;;;;5046776;28;20048;-60
2022/10/02 05:29:46;;;;;;;29.83;5.93;;;10.70;99.90;;;;;;5055076;28;20090;-60
2022/10/02 05:32:44;;;;;;;26.70;5.90;;;10.70;99.90;;;;;;5057125;28;20037;-61
2022/10/02 05:35:21;;;;;;;26.25;5.68;;;10.80;99.90;;;;;;5015039;28;20092;-62
2022/10/02 05:38:10;;;;;;;29.10;5.40;;;10.60;99.90;;;;;;5015012;28;20137;-60
2022/10/02 05:40:36;;;;;;;27.40;5.90;;;;;;;;;;5014925;28;20087;-59
2022/10/02 05:43:12;;;;;;;29.95;6.00;;;10.80;99.90;;;;;;5014828;28;20038;-59
2022/10/02 05:45:48;;;;;;;27.92;5.82;;;10.70;99.90;;;;;;5013851;28;20057;-59
2022/10/02 05:48:14;;;;;;;27.55;6.47;;;;;;;;;;5014847;28;20045;-59
2022/10/02 05:50:45;;;;;;;30.02;6.15;;;10.80;99.90;;;;;;5014643;28;20457;-61
2022/10/02 05:53:23;;;;;;;27.48;5.80;;;9.90;99.90;;;;;;5028431;28;20061;-61
2022/10/02 05:56:10;;;;;;;22.90;5.78;;;11.20;99.90;;;;;;5014664;28;20053;-61
2022/10/02 05:59:00;;;;;;;24.70;5.78;;;11.10;99.90;;;;;;5013455;28;20062;-61
2022/10/02 06:01:32;;;;;;;17.95;5.40;;;11.30;99.90;;;;;;5014463;28;20129;-61
2022/10/02 06:04:27;;;;;;;28.10;5.68;;;11.10;99.90;;;;;;5014426;28;20041;-61
2022/10/02 06:07:06;;;;;;;24.08;5.57;;;11.00;99.90;;;;;;5013720;28;20050;-61
2022/10/02 06:09:44;;;;;;;20.17;5.00;;;12.40;99.90;;;;;;4997948;28;20166;-60
2022/10/02 06:12:16;;;;;;;23.98;5.43;;;11.00;99.90;;;;;;5045686;28;20045;-59
2022/10/02 06:15:23;;;;;;;33.72;6.32;;;11.20;99.90;;;;;;5056054;28;20056;-60
2022/10/02 06:17:58;;;;;;;22.67;5.10;;;11.10;99.90;;;;;;5034476;28;20495;-59
2022/10/02 06:20:39;;;;;;;23.00;4.97;;;11.20;99.90;;;;;;5055864;28;20075;-59
2022/10/02 06:23:19;;;;;;;24.88;5.45;;;11.30;99.90;;;;;;5055460;28;20507;-59
2022/10/02 06:26:14;;;;;;;24.33;5.45;;;11.50;99.90;;;;;;5055798;28;20402;-59
2022/10/02 06:28:49;;;;;;;31.50;5.15;;;11.40;99.90;;;;;;5055578;28;20526;-59
2022/10/02 06:31:49;;;;;;;27.27;5.18;;;11.50;99.90;;;;;;5054788;28;20033;-60
2022/10/02 06:34:15;;;;;;;26.23;5.18;;;11.40;99.90;;;;;;5013689;28;20100;-59
2022/10/02 06:37:13;;;;;;;18.98;4.68;;;11.70;99.90;;;;;;5013525;28;20502;-59
2022/10/02 06:40:04;;;;;;;24.77;5.00;;;11.30;99.90;;;;;;5013703;28;20049;-61
2022/10/02 06:42:57;;;;;;;24.27;5.15;;;11.80;99.90;;;;;;5012586;28;20057;-61
2022/10/02 06:45:41;;;;;;;22.98;4.75;;;11.90;99.90;;;;;;5013730;28;20551;-61
2022/10/02 06:48:36;;;;;;;32.28;4.97;;;12.00;99.90;;;;;;5013733;28;20046;-62
2022/10/02 06:51:04;;;;;;;20.30;4.40;;;11.80;99.90;;;;;;5013507;28;20058;-59
2022/10/02 06:53:48;;;;;;;24.95;4.80;;;11.70;99.90;;;;;;5013368;28;20038;-59
2022/10/02 06:56:55;;;;;;;22.38;4.55;;;12.10;99.90;;;;;;5013497;28;20510;-59
2022/10/02 06:59:42;;;;;;;29.58;5.43;;;12.20;99.90;;;;;;5001854;28;20072;-59
2022/10/02 07:02:26;;;;;;;25.88;5.35;;;12.20;99.90;;;;;;5007378;28;20034;-60
2022/10/02 07:05:15;;;;;;;26.13;5.28;;;12.40;99.90;;;;;;5013488;28;20508;-59
2022/10/02 07:07:50;;;;;;;21.33;4.95;;;12.30;99.90;;;;;;5007783;28;20089;-59
2022/10/02 07:10:31;;;;;;;24.60;4.75;;;12.40;99.90;;;;;;5015656;28;20052;-59
2022/10/02 07:13:12;;;;;;;26.25;5.22;;;12.60;99.90;;;;;;5053786;28;20052;-59
2022/10/02 07:16:07;;;;;;;19.80;4.60;;;12.90;99.90;;;;;;5054013;28;20406;-59
2022/10/02 07:19:15;;;;;;;24.45;5.30;;;12.90;99.90;;;;;;5048326;28;20056;-59
2022/10/02 07:21:53;;;;;;;25.98;5.10;;;12.90;99.90;;;;;;5053475;28;20056;-59
2022/10/02 07:24:40;;;;;;;23.45;4.60;;;12.70;99.90;;;;;;5053525;28;20033;-59
2022/10/02 07:27:36;;;;;;;20.90;4.88;;;12.70;99.90;;;;;;5053552;28;20061;-59
2022/10/02 07:30:10;;;;;;;21.52;4.70;;;12.90;99.90;;;;;;5053944;28;20049;-61
2022/10/02 07:32:48;;;;;;;25.77;4.95;;;12.50;99.90;;;;;;5053516;28;20048;-59
2022/10/02 07:35:35;;;;;;;27.42;4.97;;;13.00;99.90;;;;;;5052161;28;20052;-61
2022/10/02 07:38:12;;;;;;;24.45;5.28;;;13.70;99.90;;;;;;5053689;28;20206;-62
2022/10/02 07:41:10;;;;;;;18.27;4.70;;;13.40;99.90;;;;;;5053689;28;20068;-61
2022/10/02 07:43:40;;;;;;;17.60;4.35;;;;;;;;;;5053444;28;20135;-61
2022/10/02 07:46:38;;;;;;;21.05;4.50;;;13.40;99.90;;;;;;5053200;28;20127;-61
2022/10/02 07:49:46;;;;;;;17.65;4.15;;;13.20;99.90;;;;;;5054320;28;20029;-61
2022/10/02 07:52:19;;;;;;;17.33;3.92;;;13.40;99.90;;;;;;5048081;28;20102;-59
2022/10/02 07:55:10;;;;;;;17.77;4.10;;;13.70;99.90;;;;;;5053006;28;20036;-59
2022/10/02 07:58:03;;;;;;;21.55;4.22;;;13.90;99.90;;;;;;5053958;28;20089;-59
2022/10/02 08:00:36;;;;;;;23.45;4.53;;;14.20;99.90;;;;;;5054208;28;20041;-60
2022/10/02 08:03:11;;;;;;;16.05;3.60;;;14.60;99.90;;;;;;5052960;28;20415;-61
2022/10/02 08:05:44;;;;;;;18.38;3.63;;;14.70;99.90;;;;;;5053996;28;20044;-61
2022/10/02 08:08:19;;;;;;;22.13;3.70;;;14.40;99.90;;;;;;5053459;28;20061;-61
2022/10/02 08:10:50;;;;;;;24.10;4.28;;;14.50;99.90;;;;;;5033687;28;20130;-61
2022/10/02 08:13:28;;;;;;;21.25;3.70;;;14.70;99.90;;;;;;5064653;28;20041;-61
2022/10/02 08:15:55;;;;;;;18.55;4.05;;;14.60;99.90;;;;;;5052315;28;20491;-59
2022/10/02 08:18:53;;;;;;;24.50;4.07;;;14.10;99.90;;;;;;5052692;28;20428;-59
2022/10/02 08:21:22;;;;;;;16.08;3.40;;;15.40;99.90;;;;;;5052567;28;20056;-59
2022/10/02 08:23:54;;;;;;;18.10;3.80;;;16.00;99.90;;;;;;5051237;28;20120;-61
2022/10/02 08:26:27;;;;;;;21.83;3.88;;;16.70;99.90;;;;;;5050829;28;20053;-61
2022/10/02 08:29:04;;;;;;;18.98;3.72;;;17.50;99.90;;;;;;5051342;28;20090;-61
2022/10/02 08:31:31;;;;;;;18.95;3.60;;;18.00;99.90;;;;;;5052526;28;20240;-61
2022/10/02 08:34:05;;;;;;;18.05;3.33;;;18.60;99.90;;;;;;5053112;28;20048;-61
2022/10/02 08:36:48;;;;;;;19.10;3.80;;;19.00;99.90;;;;;;5053538;28;20568;-62
2022/10/02 08:39:43;;;;;;;15.48;3.67;;;18.90;99.90;;;;;;5053421;28;20041;-59
2022/10/02 08:42:15;;;;;;;18.60;3.60;;;18.50;99.90;;;;;;5052040;28;20103;-59
2022/10/02 08:45:08;;;;;;;18.05;3.28;;;18.30;99.90;;;;;;5053446;28;20052;-59
2022/10/02 08:48:05;;;;;;;16.85;3.65;;;18.40;99.90;;;;;;5053214;28;20052;-59
2022/10/02 08:50:58;;;;;;;13.50;3.38;;;17.80;99.90;;;;;;5053372;28;20077;-59
2022/10/02 08:53:50;;;;;;;15.77;3.78;;;18.10;99.90;;;;;;5052916;28;20503;-60
2022/10/02 08:56:32;;;;;;;16.65;3.05;;;18.40;99.90;;;;;;5053123;28;20036;-59
2022/10/02 08:59:25;;;;;;;18.42;3.47;;;18.60;99.90;;;;;;5051915;28;20044;-59
2022/10/02 09:02:26;;;;;;;16.33;3.33;;;19.10;99.90;;;;;;5052850;28;20088;-59
2022/10/02 09:05:22;;;;;;;16.00;3.67;;;18.00;99.90;;;;;;5050215;28;20524;-60
2022/10/02 09:08:32;;;;;;;15.32;2.97;;;18.10;99.90;;;;;;5050261;28;20056;-59
2022/10/02 09:11:00;;;;;;;;;;;18.10;99.90;;;;;;5050716;28;20044;-59
2022/10/02 09:14:04;;;;;;;12.85;3.15;;;18.50;99.90;;;;;;5050793;28;19929;-59
2022/10/02 09:16:51;;;;;;;14.88;3.17;;;18.20;99.90;;;;;;5034184;28;20524;-59
2022/10/02 09:19:38;;;;;;;18.05;3.53;;;18.30;99.90;;;;;;5050581;28;20185;-59
2022/10/02 09:22:04;;;;;;;17.08;2.97;;;;;;;;;;5050416;28;20067;-59
2022/10/02 09:25:07;;;;;;;16.85;3.20;;;19.20;99.90;;;;;;5050491;28;20136;-59
2022/10/02 09:27:55;;;;;;;13.55;3.20;;;18.80;99.90;;;;;;5050317;28;20064;-59
2022/10/02 09:30:46;;;;;;;15.50;3.13;;;18.70;99.90;;;;;;5050463;28;20055;-60
2022/10/02 09:33:26;;;;;;;18.55;3.65;;;18.00;99.90;;;;;;5050380;28;20107;-59
2022/10/02 09:36:00;;;;;;;12.77;3.00;;;18.30;99.90;;;;;;5050281;28;20077;-62
2022/10/02 09:38:56;;;;;;;16.55;3.33;;;17.90;99.90;;;;;;5049709;28;20042;-62
2022/10/02 09:41:54;;;;;;;17.77;3.45;;;18.10;99.90;;;;;;5051467;28;20049;-62
2022/10/02 09:44:57;;;;;;;16.05;3.33;;;18.00;99.90;;;;;;5052555;28;20048;-62
2022/10/02 09:47:44;;;;;;;14.38;3.25;;;17.80;99.90;;;;;;5052454;28;20041;-62
2022/10/02 09:50:45;;;;;;;12.45;3.15;;;17.40;99.90;;;;;;5053481;28;20048;-62
2022/10/02 09:53:45;;;;;;;14.88;2.97;;;18.10;99.90;;;;;;5049802;28;20040;-62
2022/10/02 09:56:50;;;;;;;13.95;3.15;;;18.40;99.90;;;;;;5052199;28;20500;-62
2022/10/02 09:59:47;;;;;;;15.50;2.92;;;19.10;99.90;;;;;;5029429;28;20525;-62
2022/10/02 10:02:32;;;;;;;;;;;18.50;99.90;;;;;;5030534;28;20560;-62
2022/10/02 10:05:32;;;;;;;12.25;3.13;;;18.20;99.90;;;;;;5029924;28;19917;-62
2022/10/02 10:07:58;;;;;;;12.75;2.60;;;;;;;;;;5025092;28;20058;-62
2022/10/02 10:10:54;;;;;;;13.30;2.80;;;18.70;99.90;;;;;;5028301;28;20053;-62
2022/10/02 10:14:01;;;;;;;16.30;3.45;;;18.30;99.90;;;;;;5030109;28;20052;-61
2022/10/02 10:16:52;;;;;;;12.13;2.80;;;18.10;99.90;;;;;;5031449;28;20132;-60
2022/10/02 10:19:56;;;;;;;13.65;3.03;;;18.50;99.90;;;;;;5033522;28;20081;-59
2022/10/02 10:22:43;;;;;;;10.63;2.70;;;18.60;99.90;;;;;;5033402;28;20049;-59
2022/10/02 10:25:31;;;;;;;16.77;3.83;;;19.00;99.90;;;;;;5033634;28;20516;-59
2022/10/02 10:28:32;;;;;;;15.73;3.20;;;18.70;99.90;;;;;;5033145;28;20050;-59
2022/10/02 10:31:19;;;;;;;13.65;3.17;;;18.40;99.90;;;;;;4974760;28;20058;-59
2022/10/02 10:34:07;;;;;;;13.93;3.13;;;18.30;99.90;;;;;;4974532;28;20098;-59
2022/10/02 10:39:55;;;;;;;12.60;2.88;;;17.90;99.90;;;;;;4968566;28;20534;-59
2022/10/02 10:42:40;;;;;;;17.70;2.70;;;17.70;99.90;;;;;;4975195;28;20058;-59
2022/10/02 10:45:39;;;;;;;12.05;2.30;;;17.50;99.90;;;;;;4979922;28;20559;-59
2022/10/02 10:48:17;;;;;;;11.98;2.70;;;17.80;99.90;;;;;;4980150;28;20062;-60
2022/10/02 10:50:55;;;;;;;13.82;3.20;;;17.70;99.90;;;;;;4972907;28;20101;-61
2022/10/02 10:53:41;;;;;;;14.10;3.20;;;18.20;99.90;;;;;;4972632;28;20154;-60
2022/10/02 10:56:35;;;;;;;19.83;3.33;;;18.30;99.90;;;;;;4972938;28;20049;-60
2022/10/02 10:59:25;;;;;;;18.58;3.10;;;18.50;99.90;;;;;;4972510;28;20045;-60
2022/10/02 11:02:28;;;;;;;15.02;3.33;;;18.40;99.90;;;;;;4973380;28;20051;-60
2022/10/02 11:05:06;;;;;;;12.80;2.88;;;18.30;99.90;;;;;;4972870;28;20047;-60
2022/10/02 11:08:09;;;;;;;14.05;2.92;;;18.40;99.90;;;;;;5008264;28;20064;-60
2022/10/02 11:11:12;;;;;;;15.75;3.40;;;18.40;99.90;;;;;;5051567;28;20037;-61
2022/10/02 11:13:49;;;;;;;17.23;4.90;;;18.80;99.90;;;;;;5054787;28;20062;-60
2022/10/02 11:16:29;;;;;;;15.05;4.22;;;18.30;99.90;;;;;;5054852;28;20374;-59
2022/10/02 11:19:18;;;;;;;12.18;3.72;;;18.10;99.90;;;;;;5054738;28;20048;-59
2022/10/02 11:22:22;;;;;;;16.13;4.50;;;17.80;99.90;;;;;;5054564;28;20185;-60
2022/10/02 11:25:10;;;;;;;18.75;3.80;;;18.20;99.90;;;;;;5031503;28;20045;-60
2022/10/02 11:28:07;;;;;;;14.48;2.90;;;17.70;99.90;;;;;;5053842;28;20033;-60
2022/10/02 11:31:03;;;;;;;12.73;3.00;;;17.60;99.90;;;;;;5053251;28;20051;-60
2022/10/02 11:33:59;;;;;;;13.05;3.13;;;17.80;99.90;;;;;;5053244;28;20045;-60
2022/10/02 11:36:51;;;;;;;12.88;3.03;;;18.10;99.90;;;;;;5053979;28;20072;-60
2022/10/02 11:40:13;;;;;;;14.48;3.20;;;18.10;99.90;;;;;;5054483;28;20033;-60
2022/10/02 11:42:52;;;;;;;10.02;2.50;;;18.30;99.90;;;;;;5051937;28;20059;-60
2022/10/02 11:45:55;;;;;;;13.85;2.92;;;18.40;99.90;;;;;;5033301;28;20396;-60
2022/10/02 11:48:37;;;;;;;12.57;2.90;;;18.60;99.90;;;;;;5040349;28;20246;-60
2022/10/02 11:51:28;;;;;;;8.60;2.53;;;18.60;99.90;;;;;;5050706;28;20178;-60
2022/10/02 11:54:39;;;;;;;12.32;3.10;;;18.60;99.90;;;;;;5034219;28;20047;-60
2022/10/02 11:57:13;;;;;;;14.60;4.30;;;18.40;99.90;;;;;;5034246;28;20122;-60
2022/10/02 11:59:44;;;;;;;19.60;6.70;;;18.10;99.90;;;;;;5051432;28;20398;-60
2022/10/02 12:02:17;;;;;;;18.42;6.70;;;17.60;99.90;;;;;;5052061;28;20044;-61
2022/10/02 12:05:02;;;;;;;34.72;12.70;;;17.80;99.90;;;;;;5051616;28;20485;-60
2022/10/02 12:07:41;;;;;;;58.15;21.58;;;17.50;99.90;;;;;;5051412;28;20408;-59
2022/10/02 12:10:36;;;;;;;70.30;24.20;;;17.30;99.90;;;;;;5051607;28;20045;-59
2022/10/02 12:13:35;;;;;;;15.23;6.40;;;17.00;99.90;;;;;;5051956;28;20056;-59
2022/10/02 12:16:39;;;;;;;13.65;3.20;;;17.10;99.90;;;;;;5053943;28;20049;-60
2022/10/02 12:19:29;;;;;;;14.25;3.30;;;17.10;99.90;;;;;;5053383;28;20496;-60
2022/10/02 12:28:10;;;;;;;19.33;3.20;;;;;;;;;;5053193;28;20122;-60
2022/10/02 12:30:54;;;;;;;14.52;3.03;;;18.30;99.90;;;;;;5053129;28;20057;-60
2022/10/02 12:33:43;;;;;;;19.15;3.45;;;19.20;99.90;;;;;;5053586;28;20060;-60
2022/10/02 12:36:23;;;;;;;12.02;2.83;;;18.70;99.90;;;;;;5053411;28;20080;-60
2022/10/02 12:39:02;;;;;;;16.80;3.20;;;18.70;99.90;;;;;;5052577;28;20112;-60
2022/10/02 12:41:51;;;;;;;15.38;3.30;;;18.60;99.90;;;;;;5053458;28;20044;-60
2022/10/02 12:44:46;;;;;;;16.05;3.20;;;19.50;99.90;;;;;;5053289;28;20120;-60
2022/10/02 12:47:31;;;;;;;17.35;3.33;;;19.70;99.90;;;;;;5052858;28;20072;-60
2022/10/02 12:50:28;;;;;;;15.60;2.95;;;19.00;99.90;;;;;;5053185;28;20036;-60
2022/10/02 12:53:21;;;;;;;15.00;2.70;;;19.20;99.90;;;;;;5052970;28;20041;-60
2022/10/02 12:55:51;;;;;;;14.07;2.90;;;19.30;99.90;;;;;;5053194;28;20036;-60
2022/10/02 12:58:23;;;;;;;14.55;3.10;;;19.40;99.90;;;;;;5051679;28;20045;-60
2022/10/02 13:01:29;;;;;;;14.27;2.90;;;18.80;99.90;;;;;;5052830;28;20036;-60
2022/10/02 13:04:22;;;;;;;13.00;2.97;;;19.50;99.90;;;;;;5052810;28;20045;-60
2022/10/02 13:07:26;;;;;;;12.93;2.92;;;19.60;99.90;;;;;;5051573;28;20485;-60
2022/10/02 13:10:00;;;;;;;10.35;2.97;;;19.60;99.90;;;;;;5052810;28;20055;-60
2022/10/02 13:12:50;;;;;;;11.52;2.70;;;19.90;99.90;;;;;;5052821;28;20047;-61
2022/10/02 13:15:38;;;;;;;12.50;3.05;;;19.80;99.90;;;;;;5052699;28;20053;-61
2022/10/02 13:18:16;;;;;;;12.00;2.88;;;20.10;99.90;;;;;;5052863;28;20440;-61
2022/10/02 13:21:17;;;;;;;12.38;2.83;;;20.10;99.90;;;;;;5052753;28;20076;-61
2022/10/02 13:24:11;;;;;;;10.80;2.72;;;19.90;99.90;;;;;;5052411;28;20045;-61
2022/10/02 13:26:57;;;;;;;16.58;3.03;;;19.70;99.90;;;;;;5052532;28;20048;-61
2022/10/02 13:29:53;;;;;;;24.45;7.28;;;19.70;99.90;;;;;;5051640;28;20052;-60
2022/10/02 13:32:51;;;;;;;15.73;4.28;;;19.40;99.90;;;;;;5052774;28;20343;-60
2022/10/02 13:35:36;;;;;;;12.95;2.95;;;19.30;99.90;;;;;;5051524;28;20401;-61
2022/10/02 13:38:31;;;;;;;14.75;2.95;;;19.40;99.90;;;;;;5052565;28;20052;-61
2022/10/02 13:41:34;;;;;;;10.68;2.83;;;19.20;99.90;;;;;;5052635;28;20453;-60
2022/10/02 13:44:24;;;;;;;18.02;3.17;;;19.20;99.90;;;;;;5052575;28;20175;-60
2022/10/02 13:46:59;;;;;;;12.52;2.60;;;19.00;99.90;;;;;;5052442;28;20033;-60
2022/10/02 13:49:25;;;;;;;11.50;2.83;;;19.10;99.90;;;;;;5052550;28;20054;-60
2022/10/02 13:51:51;;;;;;;12.27;3.15;;;;;;;;;;5055122;28;20045;-60
2022/10/02 13:54:37;;;;;;;13.43;2.90;;;17.80;99.90;;;;;;5056358;28;20422;-60
2022/10/02 13:57:32;;;;;;;13.23;2.80;;;18.40;99.90;;;;;;5055725;28;20498;-60
2022/10/02 14:00:08;;;;;;;13.98;2.97;;;18.20;99.90;;;;;;5056165;28;20489;-60
2022/10/02 14:02:42;;;;;;;13.32;2.97;;;18.20;99.90;;;;;;5055085;28;20049;-61
2022/10/02 14:05:30;;;;;;;10.75;2.67;;;18.70;99.90;;;;;;5054659;28;20060;-61
2022/10/02 14:08:22;;;;;;;10.77;2.33;;;18.60;99.90;;;;;;5054214;28;20072;-61
2022/10/02 14:11:02;;;;;;;9.88;2.35;;;18.40;99.90;;;;;;5055045;28;20365;-61
2022/10/02 14:13:59;;;;;;;13.45;2.85;;;18.70;99.90;;;;;;5058785;28;20048;-60
2022/10/02 14:17:01;;;;;;;11.65;2.42;;;18.80;99.90;;;;;;5054504;28;20045;-61